HORNET1 KEWR-CYQM
Flight info
| Callsign | HORNET1 |
|---|---|
| Flight time | N/A |
| Altitude | 0 |
| Route | DCT |
| Aircraft | F18/L-VGD/A |
Departure
| Time | 2026-04-22 03:35 |
|---|---|
| Airport | Newark Liberty International Airport (KEWR) |
Arrival
| Time | N/A |
|---|---|
| Airport | Greater Moncton Roméo LeBlanc International Airport (CYQM) |
| Time | Latitude | Longitude | Altitude | Speed | Heading |
|---|---|---|---|---|---|
| 2026-04-22 03:24 | 40.70460 | -74.16726 | 18 ft | 0 kts | 66° |
| 2026-04-22 03:27 | 40.70461 | -74.16724 | 18 ft | 6 kts | 66° |
| 2026-04-22 03:27 | 40.70392 | -74.16673 | 19 ft | 15 kts | 184° |
| 2026-04-22 03:27 | 40.70302 | -74.16642 | 17 ft | 14 kts | 110° |
| 2026-04-22 03:28 | 40.70293 | -74.16517 | 16 ft | 14 kts | 81° |
| 2026-04-22 03:28 | 40.70275 | -74.16398 | 15 ft | 13 kts | 94° |
| 2026-04-22 03:28 | 40.70267 | -74.16288 | 15 ft | 11 kts | 94° |
| 2026-04-22 03:28 | 40.70262 | -74.16187 | 16 ft | 14 kts | 94° |
| 2026-04-22 03:29 | 40.70253 | -74.16025 | 16 ft | 19 kts | 94° |
| 2026-04-22 03:29 | 40.70250 | -74.15975 | 17 ft | 0 kts | 92° |
| 2026-04-22 03:34 | 40.70249 | -74.15923 | 17 ft | 0 kts | 92° |
| 2026-04-22 03:34 | 40.70204 | -74.15873 | 19 ft | 7 kts | 199° |
| 2026-04-22 03:34 | 40.70203 | -74.15873 | 19 ft | 0 kts | 201° |
| 2026-04-22 03:35 | 40.70129 | -74.15923 | 20 ft | 67 kts | 206° |
| 2026-04-22 03:35 | 40.68881 | -74.16707 | 416 ft | 325 kts | 205° |
| 2026-04-22 03:35 | 40.66019 | -74.18516 | 1352 ft | 581 kts | 206° |
| 2026-04-22 03:36 | 40.61817 | -74.21129 | 2239 ft | 724 kts | 200° |
| 2026-04-22 03:36 | 40.56802 | -74.22406 | 5348 ft | 763 kts | 188° |
| 2026-04-22 03:36 | 40.51545 | -74.22772 | 8117 ft | 757 kts | 153° |
| 2026-04-22 03:36 | 40.48563 | -74.17041 | 10872 ft | 809 kts | 109° |
| 2026-04-22 03:37 | 40.47712 | -74.09649 | 12126 ft | 819 kts | 86° |
| 2026-04-22 03:37 | 40.48325 | -74.02082 | 14554 ft | 838 kts | 83° |
| 2026-04-22 03:37 | 40.49182 | -73.94524 | 17425 ft | 832 kts | 80° |
| 2026-04-22 03:37 | 40.50296 | -73.87118 | 20750 ft | 820 kts | 77° |
| 2026-04-22 03:38 | 40.51601 | -73.79744 | 22538 ft | 839 kts | 77° |
| 2026-04-22 03:38 | 40.52938 | -73.72324 | 23520 ft | 846 kts | 76° |
| 2026-04-22 03:38 | 40.54305 | -73.64782 | 24967 ft | 843 kts | 76° |
| 2026-04-22 03:38 | 40.55656 | -73.57316 | 26811 ft | 835 kts | 77° |
| 2026-04-22 03:39 | 40.56996 | -73.49886 | 28545 ft | 833 kts | 77° |
| 2026-04-22 03:39 | 40.58752 | -73.42714 | 30376 ft | 810 kts | 56° |
| 2026-04-22 03:39 | 40.61996 | -73.36541 | 31227 ft | 828 kts | 54° |
| 2026-04-22 03:39 | 40.65378 | -73.30372 | 32191 ft | 831 kts | 54° |
| 2026-04-22 03:40 | 40.68760 | -73.24208 | 33406 ft | 830 kts | 54° |
| 2026-04-22 03:40 | 40.72127 | -73.18057 | 34800 ft | 825 kts | 54° |
| 2026-04-22 03:40 | 40.75472 | -73.11935 | 36398 ft | 818 kts | 54° |
| 2026-04-22 03:40 | 40.78778 | -73.05873 | 38209 ft | 809 kts | 54° |
| 2026-04-22 03:41 | 40.82007 | -72.99939 | 40213 ft | 799 kts | 54° |
| 2026-04-22 03:41 | 40.85217 | -72.94032 | 42472 ft | 785 kts | 54° |
| 2026-04-22 03:41 | 40.88371 | -72.88219 | 45004 ft | 767 kts | 54° |
| 2026-04-22 03:41 | 40.91434 | -72.82566 | 47777 ft | 744 kts | 54° |
| 2026-04-22 03:42 | 40.94400 | -72.77086 | 50743 ft | 718 kts | 54° |
| 2026-04-22 03:42 | 40.97249 | -72.71818 | 53521 ft | 699 kts | 54° |
| 2026-04-22 03:42 | 41.00125 | -72.66496 | 53344 ft | 722 kts | 54° |
| 2026-04-22 03:42 | 41.03095 | -72.60996 | 53020 ft | 741 kts | 54° |
| 2026-04-22 03:43 | 41.06075 | -72.55474 | 52987 ft | 753 kts | 54° |
| 2026-04-22 03:43 | 41.09178 | -72.49720 | 53243 ft | 760 kts | 54° |
| 2026-04-22 03:43 | 41.12212 | -72.44091 | 53774 ft | 761 kts | 54° |
| 2026-04-22 03:43 | 41.15281 | -72.38392 | 54568 ft | 757 kts | 54° |
| 2026-04-22 03:44 | 41.18327 | -72.32730 | 55595 ft | 749 kts | 54° |
| 2026-04-22 03:44 | 41.21741 | -72.27641 | 53922 ft | 740 kts | 38° |
| 2026-04-22 03:44 | 41.26035 | -72.23151 | 48847 ft | 829 kts | 36° |
| 2026-04-22 03:44 | 41.30741 | -72.18519 | 47795 ft | 844 kts | 36° |
| 2026-04-22 03:45 | 41.35487 | -72.13869 | 47647 ft | 845 kts | 36° |
| 2026-04-22 03:45 | 41.40227 | -72.09253 | 47868 ft | 840 kts | 36° |
| 2026-04-22 03:45 | 41.44931 | -72.04652 | 48289 ft | 835 kts | 36° |
| 2026-04-22 03:45 | 41.49595 | -72.00081 | 48804 ft | 829 kts | 36° |
| 2026-04-22 03:46 | 41.54233 | -71.95529 | 49401 ft | 824 kts | 36° |
| 2026-04-22 03:46 | 41.58774 | -71.91062 | 49976 ft | 819 kts | 37° |
| 2026-04-22 03:46 | 41.63407 | -71.86465 | 45945 ft | 850 kts | 36° |
| 2026-04-22 03:46 | 41.68443 | -71.81762 | 41308 ft | 909 kts | 34° |
| 2026-04-22 03:47 | 41.73846 | -71.77060 | 38108 ft | 932 kts | 32° |
| 2026-04-22 03:47 | 41.79402 | -71.72541 | 36236 ft | 930 kts | 30° |
| 2026-04-22 03:47 | 41.85014 | -71.68268 | 35309 ft | 921 kts | 28° |
| 2026-04-22 03:47 | 41.90575 | -71.64305 | 34888 ft | 910 kts | 27° |
| 2026-04-22 03:48 | 41.96214 | -71.60547 | 34641 ft | 898 kts | 25° |
| 2026-04-22 03:48 | 42.01855 | -71.57053 | 34470 ft | 887 kts | 24° |
| 2026-04-22 03:48 | 42.07513 | -71.53817 | 34339 ft | 877 kts | 22° |
| 2026-04-22 03:48 | 42.13175 | -71.50856 | 34321 ft | 867 kts | 20° |
| 2026-04-22 03:49 | 42.24505 | -71.45522 | 34678 ft | 854 kts | 19° |
| 2026-04-22 03:49 | 42.30102 | -71.42908 | 35126 ft | 849 kts | 19° |
| 2026-04-22 03:49 | 42.35671 | -71.40297 | 35726 ft | 844 kts | 19° |
| 2026-04-22 03:50 | 42.41201 | -71.37694 | 36454 ft | 839 kts | 19° |
| 2026-04-22 03:50 | 42.46626 | -71.35130 | 37261 ft | 835 kts | 19° |
| 2026-04-22 03:50 | 42.52116 | -71.32526 | 38210 ft | 831 kts | 19° |
| 2026-04-22 03:50 | 42.57494 | -71.29961 | 35176 ft | 779 kts | 17° |
| 2026-04-22 03:51 | 42.62838 | -71.26937 | 25149 ft | 885 kts | 27° |
| 2026-04-22 03:51 | 42.68283 | -71.22554 | 15517 ft | 916 kts | 34° |
| 2026-04-22 03:51 | 42.73260 | -71.17409 | 7201 ft | 887 kts | 40° |
| 2026-04-22 03:51 | 42.77336 | -71.11303 | 6761 ft | 847 kts | 49° |
| 2026-04-22 03:52 | 42.81256 | -71.05412 | 6603 ft | 833 kts | 46° |
| 2026-04-22 03:52 | 42.85468 | -71.00010 | 6248 ft | 828 kts | 42° |
| 2026-04-22 03:52 | 42.89738 | -70.94767 | 5774 ft | 828 kts | 42° |
| 2026-04-22 03:52 | 42.93771 | -70.89170 | 3964 ft | 830 kts | 51° |
| 2026-04-22 03:53 | 42.97369 | -70.83074 | 3162 ft | 817 kts | 50° |
| 2026-04-22 03:53 | 43.01277 | -70.77575 | 3475 ft | 807 kts | 39° |
| 2026-04-22 03:53 | 43.05821 | -70.73331 | 4438 ft | 801 kts | 32° |
| 2026-04-22 03:53 | 43.10669 | -70.69549 | 5535 ft | 803 kts | 24° |
| 2026-04-22 03:54 | 43.15754 | -70.66363 | 7204 ft | 812 kts | 25° |
| 2026-04-22 03:54 | 43.20884 | -70.62849 | 6620 ft | 830 kts | 26° |
| 2026-04-22 03:54 | 43.26174 | -70.59867 | 7890 ft | 818 kts | 17° |
| 2026-04-22 03:54 | 43.30708 | -70.57872 | 5703 ft | 503 kts | 13° |
| 2026-04-22 03:55 | 43.33088 | -70.58521 | 5263 ft | 271 kts | 331° |
| 2026-04-22 03:55 | 43.34068 | -70.59365 | 3941 ft | 242 kts | 325° |
| 2026-04-22 03:55 | 43.35925 | -70.62061 | 2639 ft | 342 kts | 308° |
| 2026-04-22 03:55 | 43.37398 | -70.64908 | 1856 ft | 384 kts | 300° |
| 2026-04-22 03:56 | 43.38661 | -70.67998 | 919 ft | 313 kts | 298° |
| 2026-04-22 03:56 | 43.39273 | -70.69540 | 315 ft | 238 kts | 299° |
| 2026-04-22 03:56 | 43.39855 | -70.71006 | 238 ft | 120 kts | 298° |
| 2026-04-22 03:56 | 43.40107 | -70.71649 | 243 ft | 39 kts | 297° |
| 2026-04-22 03:57 | 43.40109 | -70.71805 | 242 ft | 0 kts | 263° |